Time;durP1;ratioP1;P1;durP2;ratioP2;P2;SDS_P1;SDS_P2;PMS_P1;PMS_P2;Temp;Humidity;BMP_temperature;BMP_pressure;BME280_temperature;BME280_humidity;BME280_pressure;Samples;Min_cycle;Max_cycle;Signal;HPM_P1;HPM_P2
2023/02/03 00:02:32;;;;;;;;;;;;;;;17.59;62.96;101456.45;2266694;78;50397;-73
2023/02/03 00:05:33;;;;;;;;;;;;;;;17.57;63.24;101452.26;2269962;77;50749;-72
2023/02/03 00:08:36;;;;;;;;;;;;;;;17.56;63.26;101440.72;2301700;77;51357;-72
2023/02/03 00:11:37;;;;;;;;;;;;;;;17.53;63.16;101434.35;2304930;77;51454;-72
2023/02/03 00:14:39;;;;;;;;;;;;;;;17.54;63.38;101430.66;2280545;77;52321;-72
2023/02/03 00:17:40;;;;;;;;;;;;;;;17.59;63.41;101423.00;2267617;78;50366;-73
2023/02/03 00:20:42;;;;;;;;;;;;;;;17.67;63.38;101416.03;2266727;78;50246;-72
2023/02/03 00:23:43;;;;;;;;;;;;;;;17.74;63.34;101411.22;2266536;78;50741;-73
2023/02/03 00:26:45;;;;;;;;;;;;;;;17.77;63.13;101403.37;2243985;77;52594;-73
2023/02/03 00:29:47;;;;;;;;;;;;;;;17.78;63.06;101390.35;2268123;77;51454;-72
2023/02/03 00:32:48;;;;;;;;;;;;;;;17.75;63.04;101378.60;2266692;78;51457;-72
2023/02/03 00:35:50;;;;;;;;;;;;;;;17.72;63.12;101374.91;2279822;77;51490;-73
2023/02/03 00:38:51;;;;;;;;;;;;;;;17.69;63.13;101364.53;2276892;77;51203;-71
2023/02/03 00:41:53;;;;;;;;;;;;;;;17.63;63.17;101357.48;2304944;77;51560;-71
2023/02/03 00:44:54;;;;;;;;;;;;;;;17.60;63.12;101360.48;2304976;77;51537;-71
2023/02/03 00:47:56;;;;;;;;;;;;;;;17.57;63.16;101340.73;2289150;77;50274;-71
2023/02/03 00:50:58;;;;;;;;;;;;;;;17.56;63.15;101322.98;2278290;77;51194;-72
2023/02/03 00:53:59;;;;;;;;;;;;;;;17.56;63.36;101315.46;2302223;76;50725;-72
2023/02/03 00:57:01;;;;;;;;;;;;;;;17.61;63.47;101324.68;2296005;77;50728;-71
2023/02/03 01:00:03;;;;;;;;;;;;;;;17.67;63.38;101325.88;2243990;78;51565;-71
2023/02/03 01:03:04;;;;;;;;;;;;;;;17.70;63.39;101325.58;2243300;78;51818;-71
2023/02/03 01:06:10;;;;;;;;;;;;;;;17.73;63.25;101325.75;2266729;78;50446;-72
2023/02/03 01:09:13;;;;;;;;;;;;;;;17.74;63.25;101320.73;2266612;77;51518;-71
2023/02/03 01:12:15;;;;;;;;;;;;;;;17.71;63.12;101317.88;2266666;78;51308;-71
2023/02/03 01:15:16;;;;;;;;;;;;;;;17.72;63.22;101303.47;2218964;78;52777;-72
2023/02/03 01:18:19;;;;;;;;;;;;;;;17.69;63.08;101305.14;2277254;77;51435;-72
2023/02/03 01:21:23;;;;;;;;;;;;;;;17.67;63.15;101302.29;2281190;77;50000;-72
2023/02/03 01:24:24;;;;;;;;;;;;;;;17.66;63.04;101301.96;2304825;77;50683;-71
2023/02/03 01:27:28;;;;;;;;;;;;;;;17.63;63.21;101290.58;2271214;77;52475;-72
2023/02/03 01:30:29;;;;;;;;;;;;;;;17.62;63.10;101283.56;2267210;78;22434;-71
2023/02/03 01:33:31;;;;;;;;;;;;;;;17.65;63.32;101286.41;2266670;78;50496;-72
2023/02/03 01:36:33;;;;;;;;;;;;;;;17.72;63.30;101274.54;2264894;77;51308;-73
2023/02/03 01:39:34;;;;;;;;;;;;;;;17.78;63.13;101264.55;2243410;78;52891;-72
2023/02/03 01:42:36;;;;;;;;;;;;;;;17.80;63.02;101245.15;2243189;78;53789;-72
2023/02/03 01:45:37;;;;;;;;;;;;;;;17.80;62.97;101245.15;2265735;78;51406;-72
2023/02/03 01:48:39;;;;;;;;;;;;;;;17.78;62.93;101239.95;2266947;78;50504;-73
2023/02/03 01:51:41;;;;;;;;;;;;;;;17.75;62.97;101232.72;2265513;77;49602;-72
2023/02/03 01:54:43;;;;;;;;;;;;;;;17.74;62.94;101225.20;2304807;77;51677;-74
2023/02/03 01:57:47;;;;;;;;;;;;;;;17.72;62.92;101210.30;2304877;77;51604;-72
2023/02/03 02:00:48;;;;;;;;;;;;;;;17.68;62.88;101193.75;2281499;77;50785;-72
2023/02/03 02:03:52;;;;;;;;;;;;;;;17.63;62.95;101194.23;2243225;78;52591;-73
2023/02/03 02:06:55;;;;;;;;;;;;;;;17.60;62.96;101191.89;2266890;78;51550;-72
2023/02/03 02:09:57;;;;;;;;;;;;;;;17.60;63.10;101190.55;2283398;77;50248;-72
2023/02/03 02:12:58;;;;;;;;;;;;;;;17.67;63.25;101189.37;2294046;76;50482;-73
2023/02/03 02:16:05;;;;;;;;;;;;;;;17.73;63.18;101183.39;2248998;77;50941;-72
2023/02/03 02:19:08;;;;;;;;;;;;;;;17.77;63.05;101171.33;2285517;77;50481;-72
2023/02/03 02:22:26;;;;;;;;;;;;;;;17.76;63.02;101152.27;2267290;77;50400;-73
2023/02/03 02:25:41;;;;;;;;;;;;;;;17.75;62.99;101153.29;2296900;77;51528;-72
2023/02/03 02:29:01;;;;;;;;;;;;;;;17.72;63.05;101146.07;2278579;77;51868;-71
2023/02/03 02:32:17;;;;;;;;;;;;;;;17.69;62.97;101127.16;2275751;76;50318;-72
2023/02/03 02:35:32;;;;;;;;;;;;;;;17.64;62.96;101115.61;2287047;77;51980;-71
2023/02/03 02:38:48;;;;;;;;;;;;;;;17.62;63.04;101100.25;2302514;77;50388;-72
2023/02/03 02:41:54;;;;;;;;;;;;;;;17.59;63.09;101082.33;2266664;77;50994;-73
2023/02/03 02:44:56;;;;;;;;;;;;;;;17.57;63.05;101072.28;2266624;78;50682;-73
2023/02/03 02:48:02;;;;;;;;;;;;;;;17.56;63.19;101052.73;2284172;77;51671;-73
2023/02/03 02:51:05;;;;;;;;;;;;;;;17.59;63.37;101058.25;2287887;76;50408;-73
2023/02/03 02:54:07;;;;;;;;;;;;;;;17.66;63.34;101047.73;2252653;77;51076;-72
2023/02/03 02:57:09;;;;;;;;;;;;;;;17.70;63.29;101042.36;2299977;76;50001;-72
2023/02/03 03:00:12;;;;;;;;;;;;;;;17.72;63.21;101038.51;2300760;77;51537;-72
2023/02/03 03:03:15;;;;;;;;;;;;;;;17.72;63.12;101030.48;2266756;78;50434;-73
2023/02/03 03:06:21;;;;;;;;;;;;;;;17.71;63.09;101019.96;2266668;78;51163;-73
2023/02/03 03:09:24;;;;;;;;;;;;;;;17.66;63.09;101012.94;2266882;78;50674;-74
2023/02/03 03:12:28;;;;;;;;;;;;;;;17.62;63.07;101003.05;2295560;77;51529;-74
2023/02/03 03:15:30;;;;;;;;;;;;;;;17.61;62.94;101000.05;2278212;77;49220;-74
2023/02/03 03:18:33;;;;;;;;;;;;;;;17.57;63.07;101002.24;2303833;76;51028;-73
2023/02/03 03:21:36;;;;;;;;;;;;;;;17.55;63.20;101004.24;2301246;77;50442;-74
2023/02/03 03:24:39;;;;;;;;;;;;;;;17.57;63.19;100994.22;2302003;77;49910;-74
2023/02/03 03:27:42;;;;;;;;;;;;;;;17.57;63.25;100964.78;2301695;76;50271;-74
2023/02/03 03:30:43;;;;;;;;;;;;;;;17.63;63.57;100954.73;2286520;76;50964;-73
2023/02/03 03:33:45;;;;;;;;;;;;;;;17.71;63.51;100949.04;2278913;77;51431;-73
2023/02/03 03:36:48;;;;;;;;;;;;;;;17.75;63.29;100945.00;2305125;77;51460;-73
2023/02/03 03:39:57;;;;;;;;;;;;;;;17.76;63.16;100935.98;2284805;77;51490;-75
2023/02/03 03:43:09;;;;;;;;;;;;;;;17.75;63.11;100934.30;2304026;76;52720;-74
2023/02/03 03:46:16;;;;;;;;;;;;;;;17.73;62.99;100925.63;2306019;76;50827;-72
2023/02/03 03:49:17;;;;;;;;;;;;;;;17.69;63.02;100914.41;2283889;77;51620;-73
2023/02/03 03:52:20;;;;;;;;;;;;;;;17.66;63.08;100910.73;2266925;78;51506;-73
2023/02/03 03:55:22;;;;;;;;;;;;;;;17.63;63.01;100907.91;2243767;78;50179;-73
2023/02/03 03:58:28;;;;;;;;;;;;;;;17.60;62.99;100904.23;2273872;77;52293;-72
2023/02/03 04:01:29;;;;;;;;;;;;;;;17.61;62.96;100901.87;2284300;77;50811;-75
2023/02/03 04:04:31;;;;;;;;;;;;;;;17.61;62.92;100907.23;2303936;77;51277;-73
2023/02/03 04:07:43;;;;;;;;;;;;;;;17.60;63.13;100897.55;2257093;77;51339;-74
2023/02/03 04:10:45;;;;;;;;;;;;;;;17.66;63.33;100882.64;2268716;77;50408;-74
2023/02/03 04:13:46;;;;;;;;;;;;;;;17.72;63.11;100873.91;2266537;78;50631;-74
2023/02/03 04:16:48;;;;;;;;;;;;;;;17.74;62.97;100897.34;2269614;76;51910;-74
2023/02/03 04:19:49;;;;;;;;;;;;;;;17.75;62.87;100872.26;2242283;77;51010;-74
2023/02/03 04:22:52;;;;;;;;;;;;;;;17.74;62.95;100864.39;2266579;78;53711;-74
2023/02/03 04:25:54;;;;;;;;;;;;;;;17.70;62.90;100869.27;2270683;77;51454;-73
2023/02/03 04:28:56;;;;;;;;;;;;;;;17.68;62.89;100859.23;2264833;78;50653;-73
2023/02/03 04:31:57;;;;;;;;;;;;;;;17.64;62.85;100837.81;2245425;77;49564;-73
2023/02/03 04:34:59;;;;;;;;;;;;;;;17.61;62.92;100837.66;2266468;78;51523;-73
2023/02/03 04:38:00;;;;;;;;;;;;;;;17.60;62.94;100815.11;2266809;78;50418;-74
2023/02/03 04:41:02;;;;;;;;;;;;;;;17.59;62.92;100828.13;2289231;77;50355;-73
2023/02/03 04:44:04;;;;;;;;;;;;;;;17.59;62.88;100824.95;2303832;76;51202;-73
2023/02/03 04:47:07;;;;;;;;;;;;;;;17.62;63.24;100813.92;2303658;76;50269;-72
2023/02/03 04:50:09;;;;;;;;;;;;;;;17.69;63.16;100798.51;2291910;76;22276;-73
2023/02/03 04:53:10;;;;;;;;;;;;;;;17.69;63.11;100794.49;2266542;78;50757;-73
2023/02/03 04:56:12;;;;;;;;;;;;;;;17.69;63.05;100773.08;2274671;77;52674;-73
2023/02/03 04:59:13;;;;;;;;;;;;;;;17.68;63.00;100771.43;2276673;77;50379;-73
2023/02/03 05:02:15;;;;;;;;;;;;;;;17.63;62.92;100765.25;2266536;78;50749;-74
2023/02/03 05:05:17;;;;;;;;;;;;;;;17.60;62.88;100766.44;2243358;78;50584;-73
2023/02/03 05:08:18;;;;;;;;;;;;;;;17.59;62.79;100766.09;2243009;78;50096;-74
2023/02/03 05:11:20;;;;;;;;;;;;;;;17.59;62.93;100763.41;2271895;77;52508;-73
2023/02/03 05:14:22;;;;;;;;;;;;;;;17.57;63.05;100755.23;2304291;77;50450;-73
2023/02/03 05:17:23;;;;;;;;;;;;;;;17.55;63.13;100755.42;2280533;77;50717;-73
2023/02/03 05:20:25;;;;;;;;;;;;;;;17.53;63.05;100755.27;2267104;77;50728;-73
2023/02/03 05:23:26;;;;;;;;;;;;;;;17.55;63.15;100748.73;2218797;78;51026;-72
2023/02/03 05:26:28;;;;;;;;;;;;;;;17.62;63.29;100746.17;2271143;77;50722;-71
2023/02/03 05:29:30;;;;;;;;;;;;;;;17.69;63.06;100737.78;2258889;77;50628;-71
2023/02/03 05:32:31;;;;;;;;;;;;;;;17.71;63.07;100732.27;2298207;77;50747;-71
2023/02/03 05:35:33;;;;;;;;;;;;;;;17.71;62.96;100730.94;2279920;76;51576;-70
2023/02/03 05:38:34;;;;;;;;;;;;;;;17.71;62.78;100722.91;2285046;77;51604;-72
2023/02/03 05:41:54;;;;;;;;;;;;;;;17.68;62.61;100719.25;2271810;77;50351;-72
2023/02/03 05:44:56;;;;;;;;;;;;;;;17.63;62.63;100709.89;2247139;78;50377;-76
2023/02/03 05:47:58;;;;;;;;;;;;;;;17.61;62.72;100710.56;2219391;78;51853;-75
2023/02/03 05:50:59;;;;;;;;;;;;;;;17.54;62.77;100702.90;2286568;77;51562;-75
2023/02/03 05:54:01;;;;;;;;;;;;;;;17.52;62.90;100690.23;2302086;77;50710;-75
2023/02/03 05:57:02;;;;;;;;;;;;;;;17.48;63.01;100672.84;2283566;76;51543;-76
2023/02/03 06:00:06;;;;;;;;;;;;;;;17.52;62.97;100676.85;2254104;77;52478;-76
2023/02/03 06:03:07;;;;;;;;;;;;;;;17.57;62.93;100673.63;2266687;78;51770;-76
2023/02/03 06:06:09;;;;;;;;;;;;;;;17.69;62.67;100672.22;2266857;78;50358;-74
2023/02/03 06:09:10;;;;;;;;;;;;;;;17.76;62.41;100665.67;2273924;77;50329;-75
2023/02/03 06:12:12;;;;;;;;;;;;;;;17.77;62.27;100641.39;2254848;76;49836;-76
2023/02/03 06:15:14;;;;;;;;;;;;;;;17.76;62.24;100637.06;2243539;78;50003;-75
2023/02/03 06:18:15;;;;;;;;;;;;;;;17.76;62.21;100638.91;2267028;77;51362;-75
2023/02/03 06:21:17;;;;;;;;;;;;;;;17.74;62.17;100627.55;2282307;77;50713;-75
2023/02/03 06:24:19;;;;;;;;;;;;;;;17.70;62.22;100626.22;2278392;77;52426;-76
2023/02/03 06:27:20;;;;;;;;;;;;;;;17.67;62.23;100623.91;2286953;77;51507;-77
2023/02/03 06:30:22;;;;;;;;;;;;;;;17.60;62.31;100616.59;2269970;77;51492;-77
2023/02/03 06:33:24;;;;;;;;;;;;;;;17.61;63.03;100612.91;2273449;77;50623;-77
2023/02/03 06:36:25;;;;;;;;;;;;;;;17.59;62.82;100616.77;2278681;77;52718;-76
2023/02/03 06:39:27;;;;;;;;;;;;;;;17.61;62.84;100623.60;2279072;77;51452;-76
2023/02/03 06:42:29;;;;;;;;;;;;;;;17.70;62.83;100626.22;2291505;77;52320;-76
2023/02/03 06:45:30;;;;;;;;;;;;;;;17.77;62.82;100621.83;2291754;77;51496;-75
2023/02/03 06:48:32;;;;;;;;;;;;;;;17.80;63.13;100620.16;2279027;77;51218;-76
2023/02/03 06:51:33;;;;;;;;;;;;;;;17.83;62.93;100610.46;2278756;77;50203;-77
2023/02/03 06:54:35;;;;;;;;;;;;;;;17.81;62.89;100597.24;2266769;77;50414;-76
2023/02/03 06:57:38;;;;;;;;;;;;;;;17.80;62.82;100588.90;2279552;77;50769;-76
2023/02/03 07:00:40;;;;;;;;;;;;;;;17.77;62.79;100582.52;2241941;78;51827;-76
2023/02/03 07:03:41;;;;;;;;;;;;;;;17.73;62.85;100579.06;2272598;77;51517;-77
2023/02/03 07:06:43;;;;;;;;;;;;;;;17.69;62.94;100572.39;2266952;78;51543;-77
2023/02/03 07:09:45;;;;;;;;;;;;;;;17.63;63.06;100577.44;2243722;78;51497;-77
2023/02/03 07:12:49;;;;;;;;;;;;;;;17.57;63.22;100556.77;2217313;78;50098;-77
2023/02/03 07:15:50;;;;;;;;;;;;;;;17.59;63.25;100568.09;2244277;77;22960;-77
2023/02/03 07:18:52;;;;;;;;;;;;;;;17.64;63.17;100549.66;2281534;77;50317;-76
2023/02/03 07:21:53;;;;;;;;;;;;;;;17.74;62.85;100539.23;2267600;77;49998;-77
2023/02/03 07:24:55;;;;;;;;;;;;;;;17.78;62.68;100532.00;2266874;78;52367;-77
2023/02/03 07:27:56;;;;;;;;;;;;;;;17.81;62.50;100527.66;2293978;77;50262;-77
2023/02/03 07:30:59;;;;;;;;;;;;;;;17.73;61.84;100526.88;2298103;77;50066;-76
2023/02/03 07:34:02;;;;;;;;;;;;;;;17.66;61.55;100515.22;2243479;78;51546;-76
2023/02/03 07:37:06;;;;;;;;;;;;;;;17.62;62.19;100509.38;2243588;78;50958;-77
2023/02/03 07:40:07;;;;;;;;;;;;;;;17.63;62.52;100498.51;2244746;78;22221;-77
2023/02/03 07:43:09;;;;;;;;;;;;;;;17.64;62.58;100487.30;2237351;78;50640;-76
2023/02/03 07:46:10;;;;;;;;;;;;;;;17.63;62.51;100487.81;2256544;77;50429;-76
2023/02/03 07:49:12;;;;;;;;;;;;;;;17.66;62.47;100483.11;2256403;77;51817;-76
2023/02/03 07:52:13;;;;;;;;;;;;;;;17.70;62.49;100479.91;2260036;77;50037;-78
2023/02/03 07:55:15;;;;;;;;;;;;;;;17.73;62.87;100475.52;2285992;77;50251;-77
2023/02/03 07:58:17;;;;;;;;;;;;;;;17.74;62.57;100475.00;2269688;77;50292;-77
2023/02/03 08:01:18;;;;;;;;;;;;;;;17.77;62.66;100475.46;2252050;77;51111;-76
2023/02/03 08:04:20;;;;;;;;;;;;;;;17.78;62.64;100462.94;2255780;78;50641;-78
2023/02/03 08:07:21;;;;;;;;;;;;;;;17.80;62.70;100451.07;2277042;77;50374;-78
2023/02/03 08:10:23;;;;;;;;;;;;;;;17.81;62.59;100454.56;2259514;78;50143;-78
2023/02/03 08:13:25;;;;;;;;;;;;;;;17.80;62.56;100445.72;2243655;78;51716;-77
2023/02/03 08:16:26;;;;;;;;;;;;;;;17.81;62.50;100434.50;2266967;78;50421;-76
2023/02/03 08:19:28;;;;;;;;;;;;;;;17.83;62.45;100425.78;2279810;77;50679;-75
2023/02/03 08:22:29;;;;;;;;;;;;;;;17.81;62.39;100419.78;2257938;78;50764;-75
2023/02/03 08:25:31;;;;;;;;;;;;;;;17.81;62.47;100417.92;2265158;78;52463;-76
2023/02/03 08:28:32;;;;;;;;;;;;;;;17.82;62.34;100406.70;2304077;77;51561;-76
2023/02/03 08:31:34;;;;;;;;;;;;;;;17.82;62.36;100404.86;2266050;78;51589;-75
2023/02/03 08:34:36;;;;;;;;;;;;;;;17.83;62.37;100397.17;2276262;77;50122;-74
2023/02/03 08:37:37;;;;;;;;;;;;;;;17.82;62.40;100393.33;2252940;77;51186;-77
2023/02/03 08:40:39;;;;;;;;;;;;;;;17.82;62.23;100391.98;2296421;76;49945;-74
2023/02/03 08:43:40;;;;;;;;;;;;;;;17.82;62.21;100386.13;2253226;78;50736;-76
2023/02/03 08:46:43;;;;;;;;;;;;;;;17.80;62.14;100382.83;2287393;77;50683;-74
2023/02/03 08:49:44;;;;;;;;;;;;;;;17.81;62.30;100382.31;2221154;77;49298;-76
2023/02/03 08:52:46;;;;;;;;;;;;;;;17.79;62.31;100373.59;2268260;76;50100;-74
2023/02/03 08:55:53;;;;;;;;;;;;;;;17.78;62.25;100372.77;2271656;77;50617;-76
2023/02/03 08:58:56;;;;;;;;;;;;;;;17.79;62.32;100365.56;2273891;77;22398;-76
2023/02/03 09:01:58;;;;;;;;;;;;;;;17.81;62.28;100360.90;2273063;77;50856;-75
2023/02/03 09:05:00;;;;;;;;;;;;;;;17.83;62.22;100351.67;2273836;77;49865;-76
2023/02/03 09:08:02;;;;;;;;;;;;;;;17.81;62.21;100350.19;2299478;77;50321;-77
2023/02/03 09:11:05;;;;;;;;;;;;;;;17.79;62.19;100346.35;2301815;77;51657;-76
2023/02/03 09:14:07;;;;;;;;;;;;;;;17.78;62.49;100342.00;2277688;77;51182;-75
2023/02/03 09:17:08;;;;;;;;;;;;;;;17.75;62.42;100344.19;2285437;77;51498;-76
2023/02/03 09:20:12;;;;;;;;;;;;;;;17.73;62.46;100345.73;2266977;78;51531;-76
2023/02/03 09:23:13;;;;;;;;;;;;;;;17.71;62.57;100340.24;2268872;77;21773;-75
2023/02/03 09:26:15;;;;;;;;;;;;;;;17.71;62.65;100330.88;2268737;77;52454;-75
2023/02/03 09:29:17;;;;;;;;;;;;;;;17.69;62.61;100325.70;2248287;79;51571;-75
2023/02/03 09:32:18;;;;;;;;;;;;;;;17.67;62.66;100325.56;2260370;77;51368;-75
2023/02/03 09:35:22;;;;;;;;;;;;;;;17.67;62.67;100329.58;2266688;78;51545;-75
2023/02/03 09:38:23;;;;;;;;;;;;;;;17.63;62.94;100323.27;2292756;77;23489;-75
2023/02/03 09:41:36;;;;;;;;;;;;;;;17.61;62.99;100310.57;2267079;77;50724;-75
2023/02/03 09:44:39;;;;;;;;;;;;;;;17.63;62.80;100299.18;2266738;78;50396;-75
2023/02/03 09:47:41;;;;;;;;;;;;;;;17.74;62.42;100294.37;2268842;77;50331;-74
2023/02/03 09:50:43;;;;;;;;;;;;;;;17.76;62.49;100293.69;2244844;77;51331;-75
2023/02/03 09:53:45;;;;;;;;;;;;;;;17.79;62.54;100295.98;2294516;77;50449;-75
2023/02/03 09:56:49;;;;;;;;;;;;;;;17.74;62.97;100290.36;2304800;77;51530;-76
2023/02/03 09:59:50;;;;;;;;;;;;;;;17.71;63.21;100280.86;2288305;77;22269;-77
2023/02/03 10:03:12;;;;;;;;;;;;;;;17.73;63.98;100280.69;2279467;76;51036;-73
2023/02/03 10:06:18;;;;;;;;;;;;;;;17.74;63.89;100264.94;2304171;76;22456;-75
2023/02/03 10:09:21;;;;;;;;;;;;;;;17.74;64.11;100244.36;2302622;76;50320;-74
2023/02/03 10:12:24;;;;;;;;;;;;;;;17.76;64.26;100246.86;2297781;76;50754;-75
2023/02/03 10:15:39;;;;;;;;;;;;;;;17.75;63.85;100237.16;2250146;77;51812;-75
2023/02/03 10:18:43;;;;;;;;;;;;;;;17.72;63.95;100216.13;2249422;79;50715;-76
2023/02/03 10:21:46;;;;;;;;;;;;;;;17.74;64.11;100208.75;2261199;77;50460;-76
2023/02/03 10:24:49;;;;;;;;;;;;;;;17.70;64.26;100206.11;2266832;78;50491;-77
2023/02/03 10:27:52;;;;;;;;;;;;;;;17.69;64.18;100205.80;2268682;77;51544;-76
2023/02/03 10:30:55;;;;;;;;;;;;;;;17.69;64.13;100213.31;2266006;78;50450;-76
2023/02/03 10:34:01;;;;;;;;;;;;;;;17.67;64.09;100194.45;2266527;78;49996;-75
2023/02/03 10:37:05;;;;;;;;;;;;;;;17.63;64.01;100214.91;2299706;77;50727;-75
2023/02/03 10:40:08;;;;;;;;;;;;;;;17.60;63.99;100220.63;2278395;77;52522;-75
2023/02/03 10:46:30;;;;;;;;;;;;;;;17.57;63.99;100223.69;2269279;77;22409;-76
2023/02/03 10:49:31;;;;;;;;;;;;;;;17.52;64.16;100224.75;2301619;77;50894;-75
2023/02/03 10:52:33;;;;;;;;;;;;;;;17.53;64.26;100259.84;2268504;78;51861;-76
2023/02/03 10:55:35;;;;;;;;;;;;;;;17.54;64.07;100295.44;2271125;77;50698;-75
2023/02/03 10:58:37;;;;;;;;;;;;;;;17.63;63.66;100303.70;2267613;78;51463;-75
2023/02/03 11:01:46;;;;;;;;;;;;;;;17.73;63.36;100262.78;2283875;77;51547;-75
2023/02/03 11:04:48;;;;;;;;;;;;;;;17.76;63.19;100285.15;2301908;76;50172;-76
2023/02/03 11:07:49;;;;;;;;;;;;;;;17.74;63.13;100267.62;2304362;76;51398;-76
2023/02/03 11:10:51;;;;;;;;;;;;;;;17.66;63.32;100272.56;2280372;77;50965;-77
2023/02/03 11:13:54;;;;;;;;;;;;;;;17.60;63.54;100282.17;2273681;77;50290;-76
2023/02/03 11:16:55;;;;;;;;;;;;;;;17.59;63.54;100301.06;2272706;77;51071;-76
2023/02/03 11:19:58;;;;;;;;;;;;;;;17.57;63.57;100284.36;2302251;77;50397;-76
2023/02/03 11:23:00;;;;;;;;;;;;;;;17.55;63.67;100284.56;2302030;76;50445;-76
2023/02/03 11:26:13;;;;;;;;;;;;;;;17.52;63.64;100276.06;2273213;77;50464;-76
2023/02/03 11:29:16;;;;;;;;;;;;;;;17.50;63.81;100284.30;2293842;77;52562;-75
2023/02/03 11:32:20;;;;;;;;;;;;;;;17.52;63.53;100276.06;2266521;78;51513;-75
2023/02/03 11:35:22;;;;;;;;;;;;;;;17.61;63.22;100273.11;2289814;77;51567;-74
2023/02/03 11:38:35;;;;;;;;;;;;;;;17.67;62.94;100259.49;2299889;77;51651;-76
2023/02/03 11:41:37;;;;;;;;;;;;;;;17.72;62.81;100266.97;2302535;76;22440;-75
2023/02/03 11:44:39;;;;;;;;;;;;;;;17.80;62.55;100289.64;2287792;77;51601;-75
2023/02/03 11:47:47;;;;;;;;;;;;;;;17.69;62.86;100284.22;2268559;77;51530;-74
2023/02/03 11:51:02;;;;;;;;;;;;;;;17.64;63.08;100300.83;2266673;78;50239;-75
2023/02/03 11:54:15;;;;;;;;;;;;;;;17.62;63.29;100296.67;2254694;77;51288;-74
2023/02/03 11:57:21;;;;;;;;;;;;;;;17.58;63.50;100288.20;2267959;77;50783;-76
2023/02/03 12:00:29;;;;;;;;;;;;;;;17.55;63.63;100283.23;2276988;77;50698;-75
2023/02/03 12:03:41;;;;;;;;;;;;;;;17.59;63.48;100293.86;2269185;77;22449;-75
2023/02/03 12:07:01;;;;;;;;;;;;;;;17.59;64.13;100300.55;2268215;77;49617;-75
2023/02/03 12:10:14;;;;;;;;;;;;;;;17.66;64.48;100293.97;2287756;77;50334;-75
2023/02/03 12:13:20;;;;;;;;;;;;;;;17.74;63.62;100281.00;2300675;77;50483;-75
2023/02/03 12:16:30;;;;;;;;;;;;;;;17.79;63.49;100290.63;2277992;77;51619;-76
2023/02/03 12:19:38;;;;;;;;;;;;;;;17.79;64.34;100283.95;2293252;77;50341;-74
2023/02/03 12:22:44;;;;;;;;;;;;;;;17.79;63.77;100289.30;2266621;77;50443;-75
2023/02/03 12:25:54;;;;;;;;;;;;;;;17.78;63.89;100283.63;2302314;77;50199;-75
2023/02/03 12:29:06;;;;;;;;;;;;;;;17.78;64.03;100293.00;2302412;77;50311;-76
2023/02/03 12:32:24;;;;;;;;;;;;;;;17.75;64.12;100285.32;2303631;76;51877;-76
2023/02/03 12:35:27;;;;;;;;;;;;;;;17.71;64.26;100281.37;2300292;76;50487;-75
2023/02/03 12:38:30;;;;;;;;;;;;;;;17.71;64.29;100281.37;2291714;77;50702;-75
2023/02/03 12:41:35;;;;;;;;;;;;;;;17.67;64.25;100292.94;2291110;77;51487;-75
2023/02/03 12:44:38;;;;;;;;;;;;;;;17.70;64.23;100293.08;2266886;77;52581;-75
2023/02/03 12:47:41;;;;;;;;;;;;;;;17.70;64.30;100287.72;2266488;78;51810;-75
2023/02/03 12:50:46;;;;;;;;;;;;;;;17.67;64.35;100289.44;2262500;78;50366;-75
2023/02/03 12:53:48;;;;;;;;;;;;;;;17.69;64.34;100272.70;2257731;77;51472;-74
2023/02/03 12:56:50;;;;;;;;;;;;;;;17.60;64.60;100280.01;2258109;77;52429;-74
2023/02/03 12:59:53;;;;;;;;;;;;;;;17.65;64.79;100274.92;2302011;76;50717;-74
2023/02/03 13:03:13;;;;;;;;;;;;;;;17.68;64.67;100301.82;2267461;77;50755;-75
2023/02/03 13:06:20;;;;;;;;;;;;;;;17.73;64.52;100342.23;2266974;78;50816;-74
2023/02/03 13:09:29;;;;;;;;;;;;;;;17.74;64.39;100363.95;2243590;78;52334;-74
2023/02/03 13:12:31;;;;;;;;;;;;;;;17.71;63.59;100407.14;2294407;77;50798;-74
2023/02/03 13:15:45;;;;;;;;;;;;;;;17.60;63.42;100398.55;2287817;77;50253;-75
2023/02/03 13:18:48;;;;;;;;;;;;;;;17.48;63.81;100409.36;2247135;77;52509;-74
2023/02/03 13:21:51;;;;;;;;;;;;;;;17.48;64.02;100409.36;2243512;78;51065;-73
2023/02/03 13:24:57;;;;;;;;;;;;;;;17.58;63.86;100418.47;2287640;77;50331;-73
2023/02/03 13:28:00;;;;;;;;;;;;;;;17.66;63.72;100426.41;2267601;77;50686;-73
2023/02/03 13:31:20;;;;;;;;;;;;;;;17.73;63.37;100414.48;2271351;77;50772;-73
2023/02/03 13:34:36;;;;;;;;;;;;;;;17.77;63.11;100440.67;2288191;76;51322;-74
2023/02/03 13:37:39;;;;;;;;;;;;;;;17.81;62.90;100409.07;2281428;77;50384;-74
2023/02/03 13:40:59;;;;;;;;;;;;;;;17.75;63.08;100417.78;2266761;78;50804;-74
2023/02/03 13:44:00;;;;;;;;;;;;;;;17.72;63.12;100396.23;2289368;77;51608;-73
2023/02/03 13:47:02;;;;;;;;;;;;;;;17.69;63.23;100399.80;2298260;76;50954;-73
2023/02/03 13:50:05;;;;;;;;;;;;;;;17.64;63.34;100397.15;2278846;76;51548;-73
2023/02/03 13:53:07;;;;;;;;;;;;;;;17.62;63.46;100397.00;2266452;78;50981;-73
2023/02/03 13:56:11;;;;;;;;;;;;;;;17.60;63.54;100397.20;2267131;77;50342;-73
2023/02/03 13:59:18;;;;;;;;;;;;;;;17.64;63.37;100394.98;2239577;78;52414;-72
2023/02/03 14:02:21;;;;;;;;;;;;;;;17.61;63.26;100397.52;2272579;77;50686;-73
2023/02/03 14:05:39;;;;;;;;;;;;;;;17.60;63.37;100396.39;2295679;77;51340;-72
2023/02/03 14:08:42;;;;;;;;;;;;;;;17.57;63.38;100385.54;2303712;77;51462;-73
2023/02/03 14:11:45;;;;;;;;;;;;;;;17.56;63.44;100387.05;2253446;77;51374;-72
2023/02/03 14:14:51;;;;;;;;;;;;;;;17.54;63.48;100375.18;2273406;77;50448;-73
2023/02/03 14:17:54;;;;;;;;;;;;;;;17.46;63.66;100381.95;2302311;76;51485;-73
2023/02/03 14:21:00;;;;;;;;;;;;;;;17.42;63.72;100380.67;2302206;77;50400;-73
2023/02/03 14:24:03;;;;;;;;;;;;;;;17.45;63.72;100382.16;2247042;78;53098;-73
2023/02/03 14:27:05;;;;;;;;;;;;;;;17.45;63.64;100391.00;2265618;78;50758;-73
2023/02/03 14:30:08;;;;;;;;;;;;;;;17.41;63.68;100398.54;2266757;78;51454;-73
2023/02/03 14:33:10;;;;;;;;;;;;;;;17.44;63.66;100396.52;2280609;77;51448;-73
2023/02/03 14:36:32;;;;;;;;;;;;;;;17.47;63.36;100399.69;2266748;78;51517;-73
2023/02/03 14:39:35;;;;;;;;;;;;;;;17.55;63.06;100411.64;2268815;77;50292;-73
2023/02/03 14:42:53;;;;;;;;;;;;;;;17.73;62.52;100413.14;2299729;77;50776;-73
2023/02/03 14:45:56;;;;;;;;;;;;;;;17.78;62.30;100399.53;2265933;77;22582;-72
2023/02/03 14:49:05;;;;;;;;;;;;;;;17.73;62.35;100407.28;2266351;78;53131;-73
2023/02/03 14:52:08;;;;;;;;;;;;;;;17.70;62.42;100406.31;2266311;78;50327;-75
2023/02/03 14:55:20;;;;;;;;;;;;;;;17.69;62.50;100402.47;2268141;77;50272;-73
2023/02/03 14:58:26;;;;;;;;;;;;;;;17.62;62.66;100392.52;2267224;77;49892;-74
2023/02/03 15:01:39;;;;;;;;;;;;;;;17.58;62.77;100413.13;2266479;78;50412;-74
2023/02/03 15:04:41;;;;;;;;;;;;;;;17.52;62.92;100415.16;2268321;77;51519;-73
2023/02/03 15:07:48;;;;;;;;;;;;;;;17.48;63.18;100421.91;2266575;78;50474;-73
2023/02/03 15:10:49;;;;;;;;;;;;;;;17.45;63.29;100408.91;2268092;77;51480;-72
2023/02/03 15:13:51;;;;;;;;;;;;;;;17.48;63.62;100429.42;2284136;77;51615;-75
2023/02/03 15:17:01;;;;;;;;;;;;;;;17.54;64.10;100419.83;2291492;77;50361;-74
2023/02/03 15:20:04;;;;;;;;;;;;;;;17.64;63.60;100437.28;2280681;77;50687;-73
2023/02/03 15:23:22;;;;;;;;;;;;;;;17.64;63.04;100446.64;2268423;77;50397;-74
2023/02/03 15:26:24;;;;;;;;;;;;;;;17.65;62.98;100444.83;2243600;78;51442;-73
2023/02/03 15:29:28;;;;;;;;;;;;;;;17.65;62.98;100448.84;2269188;77;51468;-73
2023/02/03 15:32:31;;;;;;;;;;;;;;;17.66;62.95;100473.75;2285584;76;51467;-73
2023/02/03 15:35:32;;;;;;;;;;;;;;;17.64;62.82;100457.35;2290030;77;50448;-73
2023/02/03 15:38:41;;;;;;;;;;;;;;;17.63;62.81;100486.47;2278228;77;51080;-73
2023/02/03 15:41:44;;;;;;;;;;;;;;;17.66;63.08;100492.48;2302058;77;50362;-73
2023/02/03 15:44:47;;;;;;;;;;;;;;;17.68;63.16;100489.95;2300005;77;50674;-73
2023/02/03 15:47:50;;;;;;;;;;;;;;;17.68;62.94;100489.13;2302197;77;51561;-73